sensor_id;sensor_type;location;lat;lon;timestamp;temperature;humidity
52295;DHT22;38243;53.212;6.574;2023-03-14T00:01:55;16.30;81.90
52295;DHT22;38243;53.212;6.574;2023-03-14T00:04:21;16.30;81.80
52295;DHT22;38243;53.212;6.574;2023-03-14T00:06:47;16.30;81.80
52295;DHT22;38243;53.212;6.574;2023-03-14T00:09:13;16.30;81.90
52295;DHT22;38243;53.212;6.574;2023-03-14T00:11:39;16.30;81.80
52295;DHT22;38243;53.212;6.574;2023-03-14T00:14:04;16.30;81.80
52295;DHT22;38243;53.212;6.574;2023-03-14T00:16:30;16.30;82.50
52295;DHT22;38243;53.212;6.574;2023-03-14T00:18:57;16.20;81.70
52295;DHT22;38243;53.212;6.574;2023-03-14T00:21:23;16.30;81.90
52295;DHT22;38243;53.212;6.574;2023-03-14T00:23:49;16.20;81.90
52295;DHT22;38243;53.212;6.574;2023-03-14T00:26:17;16.30;82.00
52295;DHT22;38243;53.212;6.574;2023-03-14T00:28:43;16.20;82.00
52295;DHT22;38243;53.212;6.574;2023-03-14T00:31:11;16.30;82.10
52295;DHT22;38243;53.212;6.574;2023-03-14T00:33:37;16.20;82.10
52295;DHT22;38243;53.212;6.574;2023-03-14T00:36:06;16.20;82.00
52295;DHT22;38243;53.212;6.574;2023-03-14T00:38:34;16.30;82.10
52295;DHT22;38243;53.212;6.574;2023-03-14T00:41:09;16.20;82.10
52295;DHT22;38243;53.212;6.574;2023-03-14T00:43:35;16.20;82.00
52295;DHT22;38243;53.212;6.574;2023-03-14T00:46:01;16.20;82.20
52295;DHT22;38243;53.212;6.574;2023-03-14T00:48:27;16.20;82.20
52295;DHT22;38243;53.212;6.574;2023-03-14T00:50:53;16.20;82.10
52295;DHT22;38243;53.212;6.574;2023-03-14T00:53:19;16.20;82.20
52295;DHT22;38243;53.212;6.574;2023-03-14T00:55:45;16.20;82.10
52295;DHT22;38243;53.212;6.574;2023-03-14T00:58:13;16.20;82.20
52295;DHT22;38243;53.212;6.574;2023-03-14T01:00:39;16.20;82.20
52295;DHT22;38243;53.212;6.574;2023-03-14T01:03:08;16.20;82.20
52295;DHT22;38243;53.212;6.574;2023-03-14T01:05:34;16.20;82.20
52295;DHT22;38243;53.212;6.574;2023-03-14T01:08:01;15.60;81.90
52295;DHT22;38243;53.212;6.574;2023-03-14T01:10:27;16.20;82.10
52295;DHT22;38243;53.212;6.574;2023-03-14T01:12:53;16.20;82.20
52295;DHT22;38243;53.212;6.574;2023-03-14T01:15:18;16.20;82.30
52295;DHT22;38243;53.212;6.574;2023-03-14T01:17:44;16.20;82.40
52295;DHT22;38243;53.212;6.574;2023-03-14T01:20:12;16.20;82.30
52295;DHT22;38243;53.212;6.574;2023-03-14T01:22:39;16.20;82.40
52295;DHT22;38243;53.212;6.574;2023-03-14T01:25:07;16.20;82.40
52295;DHT22;38243;53.212;6.574;2023-03-14T01:27:33;16.20;82.50
52295;DHT22;38243;53.212;6.574;2023-03-14T01:29:59;16.20;82.50
52295;DHT22;38243;53.212;6.574;2023-03-14T01:32:25;16.20;82.50
52295;DHT22;38243;53.212;6.574;2023-03-14T01:34:51;16.20;82.60
52295;DHT22;38243;53.212;6.574;2023-03-14T01:37:17;16.20;82.50
52295;DHT22;38243;53.212;6.574;2023-03-14T01:39:43;16.20;82.50
52295;DHT22;38243;53.212;6.574;2023-03-14T01:42:08;16.20;82.50
52295;DHT22;38243;53.212;6.574;2023-03-14T01:47:16;16.20;82.70
52295;DHT22;38243;53.212;6.574;2023-03-14T01:49:43;16.20;82.60
52295;DHT22;38243;53.212;6.574;2023-03-14T01:52:11;16.20;83.20
52295;DHT22;38243;53.212;6.574;2023-03-14T01:54:41;16.20;82.70
52295;DHT22;38243;53.212;6.574;2023-03-14T01:57:11;16.20;82.80
52295;DHT22;38243;53.212;6.574;2023-03-14T01:59:41;16.20;82.80
52295;DHT22;38243;53.212;6.574;2023-03-14T02:02:09;16.20;82.70
52295;DHT22;38243;53.212;6.574;2023-03-14T02:04:37;15.90;82.60
52295;DHT22;38243;53.212;6.574;2023-03-14T02:07:17;16.20;82.70
52295;DHT22;38243;53.212;6.574;2023-03-14T02:09:45;16.20;82.80
52295;DHT22;38243;53.212;6.574;2023-03-14T02:12:14;16.20;82.90
52295;DHT22;38243;53.212;6.574;2023-03-14T02:14:41;16.20;83.00
52295;DHT22;38243;53.212;6.574;2023-03-14T02:17:12;16.20;83.00
52295;DHT22;38243;53.212;6.574;2023-03-14T02:19:48;16.20;83.10
52295;DHT22;38243;53.212;6.574;2023-03-14T02:22:16;16.20;83.10
52295;DHT22;38243;53.212;6.574;2023-03-14T02:27:17;16.20;83.10
52295;DHT22;38243;53.212;6.574;2023-03-14T02:29:51;16.20;83.10
52295;DHT22;38243;53.212;6.574;2023-03-14T02:32:19;16.20;83.10
52295;DHT22;38243;53.212;6.574;2023-03-14T02:34:48;16.10;83.00
52295;DHT22;38243;53.212;6.574;2023-03-14T02:37:16;16.20;83.10
52295;DHT22;38243;53.212;6.574;2023-03-14T02:39:44;16.20;83.10
52295;DHT22;38243;53.212;6.574;2023-03-14T02:42:12;16.20;83.20
52295;DHT22;38243;53.212;6.574;2023-03-14T02:47:34;16.20;83.10
52295;DHT22;38243;53.212;6.574;2023-03-14T02:50:17;16.20;83.10
52295;DHT22;38243;53.212;6.574;2023-03-14T02:52:44;16.20;83.20
52295;DHT22;38243;53.212;6.574;2023-03-14T02:55:09;16.20;83.20
52295;DHT22;38243;53.212;6.574;2023-03-14T02:57:35;16.20;83.30
52295;DHT22;38243;53.212;6.574;2023-03-14T03:00:02;16.20;83.40
52295;DHT22;38243;53.212;6.574;2023-03-14T03:02:32;16.20;83.40
52295;DHT22;38243;53.212;6.574;2023-03-14T03:04:57;16.20;83.40
52295;DHT22;38243;53.212;6.574;2023-03-14T03:07:23;16.10;83.50
52295;DHT22;38243;53.212;6.574;2023-03-14T03:09:49;16.20;83.60
52295;DHT22;38243;53.212;6.574;2023-03-14T03:12:15;16.20;83.70
52295;DHT22;38243;53.212;6.574;2023-03-14T03:14:41;16.10;83.70
52295;DHT22;38243;53.212;6.574;2023-03-14T03:17:07;16.20;83.90
52295;DHT22;38243;53.212;6.574;2023-03-14T03:19:33;16.20;83.90
52295;DHT22;38243;53.212;6.574;2023-03-14T03:21:59;16.10;83.80
52295;DHT22;38243;53.212;6.574;2023-03-14T03:24:25;16.20;84.00
52295;DHT22;38243;53.212;6.574;2023-03-14T03:26:52;16.10;84.00
52295;DHT22;38243;53.212;6.574;2023-03-14T03:29:18;16.10;84.00
52295;DHT22;38243;53.212;6.574;2023-03-14T03:31:44;16.10;84.10
52295;DHT22;38243;53.212;6.574;2023-03-14T03:34:14;16.10;84.10
52295;DHT22;38243;53.212;6.574;2023-03-14T03:36:40;16.10;84.10
52295;DHT22;38243;53.212;6.574;2023-03-14T03:39:05;16.10;84.20
52295;DHT22;38243;53.212;6.574;2023-03-14T03:41:32;16.10;84.20
52295;DHT22;38243;53.212;6.574;2023-03-14T03:43:58;16.10;84.30
52295;DHT22;38243;53.212;6.574;2023-03-14T03:46:24;16.10;84.30
52295;DHT22;38243;53.212;6.574;2023-03-14T03:48:59;16.10;84.40
52295;DHT22;38243;53.212;6.574;2023-03-14T03:51:25;16.10;84.50
52295;DHT22;38243;53.212;6.574;2023-03-14T03:53:51;16.10;84.40
52295;DHT22;38243;53.212;6.574;2023-03-14T03:56:17;16.10;84.50
52295;DHT22;38243;53.212;6.574;2023-03-14T03:58:43;16.10;84.50
52295;DHT22;38243;53.212;6.574;2023-03-14T04:01:09;16.10;84.60
52295;DHT22;38243;53.212;6.574;2023-03-14T04:03:36;16.10;84.60
52295;DHT22;38243;53.212;6.574;2023-03-14T04:06:10;16.10;84.70
52295;DHT22;38243;53.212;6.574;2023-03-14T04:08:36;16.00;84.70
52295;DHT22;38243;53.212;6.574;2023-03-14T04:11:02;16.00;84.70
52295;DHT22;38243;53.212;6.574;2023-03-14T04:13:29;16.00;84.70
52295;DHT22;38243;53.212;6.574;2023-03-14T04:15:56;16.00;84.70
52295;DHT22;38243;53.212;6.574;2023-03-14T04:18:22;16.10;84.90
52295;DHT22;38243;53.212;6.574;2023-03-14T04:20:53;16.00;84.80
52295;DHT22;38243;53.212;6.574;2023-03-14T04:23:19;16.00;84.90
52295;DHT22;38243;53.212;6.574;2023-03-14T04:25:45;16.00;84.90
52295;DHT22;38243;53.212;6.574;2023-03-14T04:28:11;16.00;84.90
52295;DHT22;38243;53.212;6.574;2023-03-14T04:30:36;16.00;85.00
52295;DHT22;38243;53.212;6.574;2023-03-14T04:33:02;16.00;85.00
52295;DHT22;38243;53.212;6.574;2023-03-14T04:35:31;16.00;85.00
52295;DHT22;38243;53.212;6.574;2023-03-14T04:37:57;16.00;85.10
52295;DHT22;38243;53.212;6.574;2023-03-14T04:40:23;16.00;85.10
52295;DHT22;38243;53.212;6.574;2023-03-14T04:42:48;16.00;85.30
52295;DHT22;38243;53.212;6.574;2023-03-14T04:45:14;16.00;85.10
52295;DHT22;38243;53.212;6.574;2023-03-14T04:47:40;16.00;85.30
52295;DHT22;38243;53.212;6.574;2023-03-14T04:50:06;16.00;85.30
52295;DHT22;38243;53.212;6.574;2023-03-14T04:52:31;16.00;85.30
52295;DHT22;38243;53.212;6.574;2023-03-14T04:54:57;16.00;85.90
52295;DHT22;38243;53.212;6.574;2023-03-14T04:57:23;16.00;85.40
52295;DHT22;38243;53.212;6.574;2023-03-14T04:59:49;16.00;85.50
52295;DHT22;38243;53.212;6.574;2023-03-14T05:02:14;15.90;85.50
52295;DHT22;38243;53.212;6.574;2023-03-14T05:04:40;15.90;85.50
52295;DHT22;38243;53.212;6.574;2023-03-14T05:07:06;15.90;85.60
52295;DHT22;38243;53.212;6.574;2023-03-14T05:09:31;15.90;85.50
52295;DHT22;38243;53.212;6.574;2023-03-14T05:11:57;15.90;85.60
52295;DHT22;38243;53.212;6.574;2023-03-14T05:14:23;15.90;85.60
52295;DHT22;38243;53.212;6.574;2023-03-14T05:16:48;15.90;85.80
52295;DHT22;38243;53.212;6.574;2023-03-14T05:19:14;15.90;85.70
52295;DHT22;38243;53.212;6.574;2023-03-14T05:21:40;15.90;85.80
52295;DHT22;38243;53.212;6.574;2023-03-14T05:24:06;15.90;85.80
52295;DHT22;38243;53.212;6.574;2023-03-14T05:26:31;15.90;85.90
52295;DHT22;38243;53.212;6.574;2023-03-14T05:28:57;15.90;85.90
52295;DHT22;38243;53.212;6.574;2023-03-14T05:31:23;15.90;86.00
52295;DHT22;38243;53.212;6.574;2023-03-14T05:33:48;15.90;85.90
52295;DHT22;38243;53.212;6.574;2023-03-14T05:36:14;15.90;85.90
52295;DHT22;38243;53.212;6.574;2023-03-14T05:38:40;15.90;86.00
52295;DHT22;38243;53.212;6.574;2023-03-14T05:41:06;15.90;86.00
52295;DHT22;38243;53.212;6.574;2023-03-14T05:43:32;15.90;86.00
52295;DHT22;38243;53.212;6.574;2023-03-14T05:45:57;15.90;86.00
52295;DHT22;38243;53.212;6.574;2023-03-14T05:48:23;15.90;86.10
52295;DHT22;38243;53.212;6.574;2023-03-14T05:50:57;15.90;86.20
52295;DHT22;38243;53.212;6.574;2023-03-14T05:53:25;15.90;86.10
52295;DHT22;38243;53.212;6.574;2023-03-14T05:55:52;15.90;86.80
52295;DHT22;38243;53.212;6.574;2023-03-14T05:58:18;15.90;86.10
52295;DHT22;38243;53.212;6.574;2023-03-14T06:00:44;15.90;86.20
52295;DHT22;38243;53.212;6.574;2023-03-14T06:03:09;15.90;86.40
52295;DHT22;38243;53.212;6.574;2023-03-14T06:05:35;15.90;86.20
52295;DHT22;38243;53.212;6.574;2023-03-14T06:08:01;15.90;86.30
52295;DHT22;38243;53.212;6.574;2023-03-14T06:10:27;15.90;86.30
52295;DHT22;38243;53.212;6.574;2023-03-14T06:12:52;15.90;87.00
52295;DHT22;38243;53.212;6.574;2023-03-14T06:15:19;15.90;86.30
52295;DHT22;38243;53.212;6.574;2023-03-14T06:17:45;15.90;86.30
52295;DHT22;38243;53.212;6.574;2023-03-14T06:20:11;15.90;86.40
52295;DHT22;38243;53.212;6.574;2023-03-14T06:22:36;15.90;86.40
52295;DHT22;38243;53.212;6.574;2023-03-14T06:25:04;15.90;86.50
52295;DHT22;38243;53.212;6.574;2023-03-14T06:27:29;15.90;86.90
52295;DHT22;38243;53.212;6.574;2023-03-14T06:29:55;15.90;87.80
52295;DHT22;38243;53.212;6.574;2023-03-14T06:32:21;16.00;88.50
52295;DHT22;38243;53.212;6.574;2023-03-14T06:34:47;16.00;89.40
52295;DHT22;38243;53.212;6.574;2023-03-14T06:37:12;16.00;90.00
52295;DHT22;38243;53.212;6.574;2023-03-14T06:39:38;16.00;90.30
52295;DHT22;38243;53.212;6.574;2023-03-14T06:42:05;16.10;90.40
52295;DHT22;38243;53.212;6.574;2023-03-14T06:44:31;16.10;90.70
52295;DHT22;38243;53.212;6.574;2023-03-14T06:46:56;16.10;90.70
52295;DHT22;38243;53.212;6.574;2023-03-14T06:49:22;16.10;90.60
52295;DHT22;38243;53.212;6.574;2023-03-14T06:51:48;16.10;90.50
52295;DHT22;38243;53.212;6.574;2023-03-14T06:54:14;16.10;90.70
52295;DHT22;38243;53.212;6.574;2023-03-14T06:56:40;16.10;91.10
52295;DHT22;38243;53.212;6.574;2023-03-14T06:59:06;16.10;91.60
52295;DHT22;38243;53.212;6.574;2023-03-14T07:01:31;16.10;91.50
52295;DHT22;38243;53.212;6.574;2023-03-14T07:04:01;16.10;91.40
52295;DHT22;38243;53.212;6.574;2023-03-14T07:06:27;16.10;91.20
52295;DHT22;38243;53.212;6.574;2023-03-14T07:08:55;16.10;91.00
52295;DHT22;38243;53.212;6.574;2023-03-14T07:11:21;16.10;90.70
52295;DHT22;38243;53.212;6.574;2023-03-14T07:13:47;16.10;90.60
52295;DHT22;38243;53.212;6.574;2023-03-14T07:16:12;16.10;90.40
52295;DHT22;38243;53.212;6.574;2023-03-14T07:18:38;16.10;90.20
52295;DHT22;38243;53.212;6.574;2023-03-14T07:21:06;16.10;90.00
52295;DHT22;38243;53.212;6.574;2023-03-14T07:23:32;16.10;89.90
52295;DHT22;38243;53.212;6.574;2023-03-14T07:25:58;16.10;89.70
52295;DHT22;38243;53.212;6.574;2023-03-14T07:28:24;16.10;89.50
52295;DHT22;38243;53.212;6.574;2023-03-14T07:30:49;16.10;89.50
52295;DHT22;38243;53.212;6.574;2023-03-14T07:33:15;16.10;88.90
52295;DHT22;38243;53.212;6.574;2023-03-14T07:35:41;16.10;88.50
52295;DHT22;38243;53.212;6.574;2023-03-14T07:38:07;16.10;88.40
52295;DHT22;38243;53.212;6.574;2023-03-14T07:40:33;16.10;88.10
52295;DHT22;38243;53.212;6.574;2023-03-14T07:42:58;16.00;87.90
52295;DHT22;38243;53.212;6.574;2023-03-14T07:45:24;16.10;87.80
52295;DHT22;38243;53.212;6.574;2023-03-14T07:47:50;16.10;87.60
52295;DHT22;38243;53.212;6.574;2023-03-14T07:50:16;16.10;87.40
52295;DHT22;38243;53.212;6.574;2023-03-14T07:52:42;16.00;87.30
52295;DHT22;38243;53.212;6.574;2023-03-14T07:55:08;16.00;87.10
52295;DHT22;38243;53.212;6.574;2023-03-14T07:57:33;16.00;86.90
52295;DHT22;38243;53.212;6.574;2023-03-14T07:59:59;16.00;86.80
52295;DHT22;38243;53.212;6.574;2023-03-14T08:02:25;16.00;86.70
52295;DHT22;38243;53.212;6.574;2023-03-14T08:04:51;16.00;86.60
52295;DHT22;38243;53.212;6.574;2023-03-14T08:07:17;17.00;87.00
52295;DHT22;38243;53.212;6.574;2023-03-14T08:09:42;16.00;86.40
52295;DHT22;38243;53.212;6.574;2023-03-14T08:12:08;16.00;86.20
52295;DHT22;38243;53.212;6.574;2023-03-14T08:14:34;16.00;86.20
52295;DHT22;38243;53.212;6.574;2023-03-14T08:16:59;16.00;86.20
52295;DHT22;38243;53.212;6.574;2023-03-14T08:19:25;16.00;86.10
52295;DHT22;38243;53.212;6.574;2023-03-14T08:21:51;16.00;86.00
52295;DHT22;38243;53.212;6.574;2023-03-14T08:24:17;16.00;86.00
52295;DHT22;38243;53.212;6.574;2023-03-14T08:26:43;16.00;85.90
52295;DHT22;38243;53.212;6.574;2023-03-14T08:29:08;16.10;85.90
52295;DHT22;38243;53.212;6.574;2023-03-14T08:31:35;16.10;85.90
52295;DHT22;38243;53.212;6.574;2023-03-14T08:34:01;16.10;85.80
52295;DHT22;38243;53.212;6.574;2023-03-14T08:36:27;16.10;85.70
52295;DHT22;38243;53.212;6.574;2023-03-14T08:38:53;16.10;85.70
52295;DHT22;38243;53.212;6.574;2023-03-14T08:41:19;16.10;85.70
52295;DHT22;38243;53.212;6.574;2023-03-14T08:43:45;16.10;85.70
52295;DHT22;38243;53.212;6.574;2023-03-14T08:46:11;16.10;85.80
52295;DHT22;38243;53.212;6.574;2023-03-14T08:48:37;16.10;85.70
52295;DHT22;38243;53.212;6.574;2023-03-14T08:51:11;16.20;85.70
52295;DHT22;38243;53.212;6.574;2023-03-14T08:53:38;16.20;85.60
52295;DHT22;38243;53.212;6.574;2023-03-14T08:56:04;16.20;85.50
52295;DHT22;38243;53.212;6.574;2023-03-14T08:58:32;16.20;85.50
52295;DHT22;38243;53.212;6.574;2023-03-14T09:00:58;16.20;85.40
52295;DHT22;38243;53.212;6.574;2023-03-14T09:03:24;16.20;85.40
52295;DHT22;38243;53.212;6.574;2023-03-14T09:05:51;16.30;85.30
52295;DHT22;38243;53.212;6.574;2023-03-14T09:08:17;16.30;85.20
52295;DHT22;38243;53.212;6.574;2023-03-14T09:10:43;16.40;85.50
52295;DHT22;38243;53.212;6.574;2023-03-14T09:13:09;16.50;85.40
52295;DHT22;38243;53.212;6.574;2023-03-14T09:15:34;16.50;85.30
52295;DHT22;38243;53.212;6.574;2023-03-14T09:18:00;16.60;85.00
52295;DHT22;38243;53.212;6.574;2023-03-14T09:20:26;16.60;84.90
52295;DHT22;38243;53.212;6.574;2023-03-14T09:22:52;16.70;84.70
52295;DHT22;38243;53.212;6.574;2023-03-14T09:25:17;16.70;84.60
52295;DHT22;38243;53.212;6.574;2023-03-14T09:27:43;16.70;84.50
52295;DHT22;38243;53.212;6.574;2023-03-14T09:30:09;16.60;84.40
52295;DHT22;38243;53.212;6.574;2023-03-14T09:32:36;16.70;84.30
52295;DHT22;38243;53.212;6.574;2023-03-14T09:35:02;16.70;84.70
52295;DHT22;38243;53.212;6.574;2023-03-14T09:37:27;16.60;83.80
52295;DHT22;38243;53.212;6.574;2023-03-14T09:39:53;16.60;83.60
52295;DHT22;38243;53.212;6.574;2023-03-14T09:42:22;16.60;83.60
52295;DHT22;38243;53.212;6.574;2023-03-14T09:47:22;16.60;83.40
52295;DHT22;38243;53.212;6.574;2023-03-14T09:49:49;16.50;83.20
52295;DHT22;38243;53.212;6.574;2023-03-14T09:52:20;16.50;83.60
52295;DHT22;38243;53.212;6.574;2023-03-14T09:54:52;16.50;83.00
52295;DHT22;38243;53.212;6.574;2023-03-14T09:57:28;16.50;82.80
52295;DHT22;38243;53.212;6.574;2023-03-14T09:59:58;16.50;82.50
52295;DHT22;38243;53.212;6.574;2023-03-14T10:02:34;16.50;82.50
52295;DHT22;38243;53.212;6.574;2023-03-14T10:05:00;16.50;82.50
52295;DHT22;38243;53.212;6.574;2023-03-14T10:07:31;16.50;82.50
52295;DHT22;38243;53.212;6.574;2023-03-14T10:09:58;16.50;82.40
52295;DHT22;38243;53.212;6.574;2023-03-14T10:12:35;16.40;82.20
52295;DHT22;38243;53.212;6.574;2023-03-14T10:15:13;16.50;82.20
52295;DHT22;38243;53.212;6.574;2023-03-14T10:17:47;16.50;82.10
52295;DHT22;38243;53.212;6.574;2023-03-14T10:20:35;16.50;81.90
52295;DHT22;38243;53.212;6.574;2023-03-14T10:23:26;16.50;81.80
52295;DHT22;38243;53.212;6.574;2023-03-14T10:26:05;16.50;81.90
52295;DHT22;38243;53.212;6.574;2023-03-14T10:28:37;16.60;82.00
52295;DHT22;38243;53.212;6.574;2023-03-14T10:31:03;16.60;82.00
52295;DHT22;38243;53.212;6.574;2023-03-14T10:33:32;16.60;81.90
52295;DHT22;38243;53.212;6.574;2023-03-14T10:38:33;16.70;81.80
52295;DHT22;38243;53.212;6.574;2023-03-14T10:41:00;16.70;81.50
52295;DHT22;38243;53.212;6.574;2023-03-14T10:45:57;16.80;80.90
52295;DHT22;38243;53.212;6.574;2023-03-14T10:48:30;16.80;80.70
52295;DHT22;38243;53.212;6.574;2023-03-14T10:51:17;16.90;80.20
52295;DHT22;38243;53.212;6.574;2023-03-14T10:53:47;17.00;80.00
52295;DHT22;38243;53.212;6.574;2023-03-14T10:56:19;17.00;79.70
52295;DHT22;38243;53.212;6.574;2023-03-14T10:58:47;17.00;79.50
52295;DHT22;38243;53.212;6.574;2023-03-14T11:09:37;17.00;78.40
52295;DHT22;38243;53.212;6.574;2023-03-14T11:12:41;17.10;78.20
52295;DHT22;38243;53.212;6.574;2023-03-14T11:20:41;17.20;77.00
52295;DHT22;38243;53.212;6.574;2023-03-14T11:23:22;17.20;76.90
52295;DHT22;38243;53.212;6.574;2023-03-14T11:28:38;17.30;76.50
52295;DHT22;38243;53.212;6.574;2023-03-14T11:31:16;17.30;76.30
52295;DHT22;38243;53.212;6.574;2023-03-14T11:34:15;17.40;76.10
52295;DHT22;38243;53.212;6.574;2023-03-14T11:36:55;17.40;75.60
52295;DHT22;38243;53.212;6.574;2023-03-14T11:39:25;17.40;75.60
52295;DHT22;38243;53.212;6.574;2023-03-14T11:41:53;17.40;75.30
52295;DHT22;38243;53.212;6.574;2023-03-14T11:44:24;17.40;75.20
52295;DHT22;38243;53.212;6.574;2023-03-14T11:47:04;17.50;75.20
52295;DHT22;38243;53.212;6.574;2023-03-14T11:49:51;17.50;74.70
52295;DHT22;38243;53.212;6.574;2023-03-14T11:52:20;17.60;74.70
52295;DHT22;38243;53.212;6.574;2023-03-14T11:54:53;17.70;74.70
52295;DHT22;38243;53.212;6.574;2023-03-14T11:57:21;17.70;74.40
52295;DHT22;38243;53.212;6.574;2023-03-14T12:10:43;17.70;73.40
52295;DHT22;38243;53.212;6.574;2023-03-14T12:13:13;17.60;73.30
52295;DHT22;38243;53.212;6.574;2023-03-14T12:15:41;17.60;73.10
52295;DHT22;38243;53.212;6.574;2023-03-14T12:18:30;17.60;73.20
52295;DHT22;38243;53.212;6.574;2023-03-14T12:21:05;17.60;73.20
52295;DHT22;38243;53.212;6.574;2023-03-14T12:23:49;17.50;73.30
52295;DHT22;38243;53.212;6.574;2023-03-14T12:26:22;17.50;73.30
52295;DHT22;38243;53.212;6.574;2023-03-14T12:39:43;17.40;72.70
52295;DHT22;38243;53.212;6.574;2023-03-14T12:45:15;17.40;73.10
52295;DHT22;38243;53.212;6.574;2023-03-14T12:50:25;17.30;72.60
52295;DHT22;38243;53.212;6.574;2023-03-14T12:53:08;17.30;72.60
52295;DHT22;38243;53.212;6.574;2023-03-14T12:55:48;17.30;72.70
52295;DHT22;38243;53.212;6.574;2023-03-14T13:00:59;17.30;72.40
52295;DHT22;38243;53.212;6.574;2023-03-14T13:03:36;17.30;72.20
52295;DHT22;38243;53.212;6.574;2023-03-14T13:06:04;17.30;72.10
52295;DHT22;38243;53.212;6.574;2023-03-14T13:08:37;17.30;71.80
52295;DHT22;38243;53.212;6.574;2023-03-14T13:11:18;17.30;72.60
52295;DHT22;38243;53.212;6.574;2023-03-14T13:13:52;17.30;72.20
52295;DHT22;38243;53.212;6.574;2023-03-14T13:16:20;17.40;72.20
52295;DHT22;38243;53.212;6.574;2023-03-14T13:18:48;17.40;72.10
52295;DHT22;38243;53.212;6.574;2023-03-14T13:21:19;17.40;71.90
52295;DHT22;38243;53.212;6.574;2023-03-14T13:23:59;17.50;71.80
52295;DHT22;38243;53.212;6.574;2023-03-14T13:26:35;17.50;71.50
52295;DHT22;38243;53.212;6.574;2023-03-14T13:31:46;17.50;71.40
52295;DHT22;38243;53.212;6.574;2023-03-14T13:34:12;17.50;71.00
52295;DHT22;38243;53.212;6.574;2023-03-14T13:36:38;17.50;70.90
52295;DHT22;38243;53.212;6.574;2023-03-14T13:39:13;17.50;70.80
52295;DHT22;38243;53.212;6.574;2023-03-14T13:41:43;17.50;70.60
52295;DHT22;38243;53.212;6.574;2023-03-14T13:44:17;17.50;70.10
52295;DHT22;38243;53.212;6.574;2023-03-14T13:46:44;17.50;70.10
52295;DHT22;38243;53.212;6.574;2023-03-14T13:49:15;17.50;69.80
52295;DHT22;38243;53.212;6.574;2023-03-14T13:51:43;17.50;70.00
52295;DHT22;38243;53.212;6.574;2023-03-14T13:54:19;17.50;69.70
52295;DHT22;38243;53.212;6.574;2023-03-14T13:56:46;17.50;69.70
52295;DHT22;38243;53.212;6.574;2023-03-14T13:59:25;17.50;69.80
52295;DHT22;38243;53.212;6.574;2023-03-14T14:01:53;17.50;69.70
52295;DHT22;38243;53.212;6.574;2023-03-14T14:04:21;17.50;69.70
52295;DHT22;38243;53.212;6.574;2023-03-14T14:06:56;17.50;69.80
52295;DHT22;38243;53.212;6.574;2023-03-14T14:09:38;17.30;69.40
52295;DHT22;38243;53.212;6.574;2023-03-14T14:14:54;17.50;69.60
52295;DHT22;38243;53.212;6.574;2023-03-14T14:17:26;17.50;69.60
52295;DHT22;38243;53.212;6.574;2023-03-14T14:19:54;17.50;69.60
52295;DHT22;38243;53.212;6.574;2023-03-14T14:22:22;17.50;69.40
52295;DHT22;38243;53.212;6.574;2023-03-14T14:24:48;17.50;69.30
52295;DHT22;38243;53.212;6.574;2023-03-14T14:27:17;17.50;69.00
52295;DHT22;38243;53.212;6.574;2023-03-14T14:29:44;17.40;68.70
52295;DHT22;38243;53.212;6.574;2023-03-14T14:32:21;17.50;68.70
52295;DHT22;38243;53.212;6.574;2023-03-14T14:34:59;17.40;68.60
52295;DHT22;38243;53.212;6.574;2023-03-14T14:39:55;17.40;68.40
52295;DHT22;38243;53.212;6.574;2023-03-14T14:42:28;17.40;68.30
52295;DHT22;38243;53.212;6.574;2023-03-14T14:44:56;17.40;68.50
52295;DHT22;38243;53.212;6.574;2023-03-14T14:47:24;17.40;68.40
52295;DHT22;38243;53.212;6.574;2023-03-14T14:49:53;17.40;68.40
52295;DHT22;38243;53.212;6.574;2023-03-14T14:52:31;17.40;68.50
52295;DHT22;38243;53.212;6.574;2023-03-14T14:54:59;17.40;68.60
52295;DHT22;38243;53.212;6.574;2023-03-14T14:57:28;17.40;68.60
52295;DHT22;38243;53.212;6.574;2023-03-14T15:00:00;17.40;68.60
52295;DHT22;38243;53.212;6.574;2023-03-14T15:05:28;17.40;68.60
52295;DHT22;38243;53.212;6.574;2023-03-14T15:08:01;17.40;68.40
52295;DHT22;38243;53.212;6.574;2023-03-14T15:10:27;17.50;68.40
52295;DHT22;38243;53.212;6.574;2023-03-14T15:12:52;17.50;68.20
52295;DHT22;38243;53.212;6.574;2023-03-14T15:15:18;17.50;68.10
52295;DHT22;38243;53.212;6.574;2023-03-14T15:17:44;17.50;68.00
52295;DHT22;38243;53.212;6.574;2023-03-14T15:20:13;17.50;67.70
52295;DHT22;38243;53.212;6.574;2023-03-14T15:22:42;17.50;67.60
52295;DHT22;38243;53.212;6.574;2023-03-14T15:25:08;17.40;67.60
52295;DHT22;38243;53.212;6.574;2023-03-14T15:27:35;17.40;67.60
52295;DHT22;38243;53.212;6.574;2023-03-14T15:30:02;17.40;67.60
52295;DHT22;38243;53.212;6.574;2023-03-14T15:32:27;17.40;67.60
52295;DHT22;38243;53.212;6.574;2023-03-14T15:34:57;17.40;67.50
52295;DHT22;38243;53.212;6.574;2023-03-14T15:37:22;17.40;67.70
52295;DHT22;38243;53.212;6.574;2023-03-14T15:39:49;17.40;67.70
52295;DHT22;38243;53.212;6.574;2023-03-14T15:42:14;17.40;67.10
52295;DHT22;38243;53.212;6.574;2023-03-14T15:44:40;17.40;66.80
52295;DHT22;38243;53.212;6.574;2023-03-14T15:47:08;17.40;66.90
52295;DHT22;38243;53.212;6.574;2023-03-14T15:49:34;17.40;67.00
52295;DHT22;38243;53.212;6.574;2023-03-14T15:52:00;17.40;66.90
52295;DHT22;38243;53.212;6.574;2023-03-14T15:54:28;17.40;67.10
52295;DHT22;38243;53.212;6.574;2023-03-14T15:56:55;17.40;67.10
52295;DHT22;38243;53.212;6.574;2023-03-14T15:59:21;17.40;67.20
52295;DHT22;38243;53.212;6.574;2023-03-14T16:01:47;17.40;67.30
52295;DHT22;38243;53.212;6.574;2023-03-14T16:04:16;17.40;67.10
52295;DHT22;38243;53.212;6.574;2023-03-14T16:06:42;17.30;67.00
52295;DHT22;38243;53.212;6.574;2023-03-14T16:09:10;17.30;67.00
52295;DHT22;38243;53.212;6.574;2023-03-14T16:11:36;17.30;66.50
52295;DHT22;38243;53.212;6.574;2023-03-14T16:14:02;17.30;66.40
52295;DHT22;38243;53.212;6.574;2023-03-14T16:16:28;17.40;66.50
52295;DHT22;38243;53.212;6.574;2023-03-14T16:18:53;17.30;66.80
52295;DHT22;38243;53.212;6.574;2023-03-14T16:21:20;17.30;66.90
52295;DHT22;38243;53.212;6.574;2023-03-14T16:23:46;17.30;67.20
52295;DHT22;38243;53.212;6.574;2023-03-14T16:26:18;17.30;67.30
52295;DHT22;38243;53.212;6.574;2023-03-14T16:28:45;17.30;67.30
52295;DHT22;38243;53.212;6.574;2023-03-14T16:31:12;17.30;67.20
52295;DHT22;38243;53.212;6.574;2023-03-14T16:33:38;17.30;67.40
52295;DHT22;38243;53.212;6.574;2023-03-14T16:36:07;17.30;67.60
52295;DHT22;38243;53.212;6.574;2023-03-14T16:38:34;17.30;67.70
52295;DHT22;38243;53.212;6.574;2023-03-14T16:41:02;17.20;67.60
52295;DHT22;38243;53.212;6.574;2023-03-14T16:43:29;17.20;67.50
52295;DHT22;38243;53.212;6.574;2023-03-14T16:45:59;17.20;68.20
52295;DHT22;38243;53.212;6.574;2023-03-14T16:48:26;17.20;67.60
52295;DHT22;38243;53.212;6.574;2023-03-14T16:50:52;17.20;67.70